HUAL Seoul — LADO6 — position and weather

sailwx.info

Track history (hours):
 
Tides and Currents Weather Stations Pressure Air Temp Water Temp Dewpoint Dewpoint Depression Visibility Wind Speed Wind Dir Waves Ship Positions

HUAL Seoul

Last reported at 2017-Feb-23 12:13 UTC. Time now 2017-Feb-28 07:44 UTC.
Position S 36°14' E 174°57'.

Type: Cargo ship. MMSI: 257496000.

Date/timePositionNaut miles runAvg speedWind from/ knotsBaromVisibWave heightAir tempDewpointWater temp
2017-Feb-23 12:13S 36°14' E 174°57'710.1
2017-Feb-23 11:33S 36°20' E 174°58'10 9.7
2017-Feb-23 10:33S 36°30' E 174°59'10 9.9
2017-Feb-23 09:33S 36°39' E 174°55'10 9.7
2017-Feb-23 08:33S 36°48' E 174°49'3 3.2
2017-Feb-23 07:31S 36°50' E 174°46'0 0.0
2017-Feb-23 05:31S 36°50' E 174°46'0 0.0
2017-Feb-23 04:31S 36°50' E 174°46'0 0.0
2017-Feb-23 03:31S 36°50' E 174°46'0 0.0
2017-Feb-23 02:31S 36°50' E 174°46'0 0.0
2017-Feb-23 01:32S 36°50' E 174°46'1 1.5
2017-Feb-23 00:33S 36°50' E 174°48'8 8.4
2017-Feb-22 23:33S 36°42' E 174°52'8 8.0
2017-Feb-22 22:33S 36°36' E 174°58'8 7.8
2017-Feb-22 21:33S 36°28' E 174°60'10 9.6
2017-Feb-22 20:33S 36°19' E 174°58'  
2017-Feb-19 18:23S 27°14' E 154°43'2018.2
2017-Feb-19 17:18S 27°06' E 154°22'3218.7
2017-Feb-19 15:33S 26°53' E 153°49'1918.7
2017-Feb-19 14:33S 26°46' E 153°30'1515.4
2017-Feb-19 13:33S 26°42' E 153°13'1111.4
2017-Feb-19 12:34S 26°53' E 153°10'1615.9
2017-Feb-19 11:33S 27°06' E 153°20'1413.7
2017-Feb-19 10:33S 27°19' E 153°13'5 4.4
2017-Feb-19 09:31S 27°23' E 153°10'0 0.0
2017-Feb-19 08:31S 27°23' E 153°10'0 0.0
2017-Feb-19 07:31S 27°23' E 153°10'0 0.0
2017-Feb-19 06:31S 27°23' E 153°10'0 0.0
2017-Feb-19 05:31S 27°23' E 153°10'0 0.0
2017-Feb-19 04:31S 27°23' E 153°10'0 0.0
2017-Feb-19 03:31S 27°23' E 153°10'0 0.0
2017-Feb-19 02:31S 27°23' E 153°10'0 0.0
2017-Feb-19 01:31S 27°23' E 153°10'0 0.0
2017-Feb-19 00:31S 27°23' E 153°10'2 1.8
2017-Feb-18 23:33S 27°21' E 153°11'1514.6
2017-Feb-18 22:33S 27°10' E 153°21'1615.6
2017-Feb-18 21:33S 26°56' E 153°12'1313.1
2017-Feb-18 20:34S 26°43' E 153°11'4 3.8
2017-Feb-18 19:34S 26°41' E 153°14'9 8.7
2017-Feb-18 18:31S 26°43' E 153°24'1112.0
2017-Feb-18 17:33S 26°51' E 153°33'1514.9
2017-Feb-18 16:33S 27°06' E 153°38'1515.3
2017-Feb-18 15:33S 27°21' E 153°40'1514.5
2017-Feb-18 14:33S 27°35' E 153°42'1514.7
2017-Feb-18 13:33S 27°50' E 153°43'1515.2
2017-Feb-18 12:33S 28°05' E 153°44'1615.1
2017-Feb-18 11:31S 28°21' E 153°45'1414.7
2017-Feb-18 10:33S 28°35' E 153°46'1514.6
2017-Feb-18 09:33S 28°49' E 153°44'1514.8
2017-Feb-18 08:33S 29°04' E 153°41'16713.6
2017-Feb-17 20:17S 31°47' E 152°59'1114.6
2017-Feb-17 19:33S 31°57' E 152°56'3115.5
2017-Feb-17 17:34S 32°26' E 152°44'1515.2
2017-Feb-17 16:34S 32°41' E 152°38'1615.9
2017-Feb-17 15:34S 32°55' E 152°29'1515.0
2017-Feb-17 14:34S 33°09' E 152°23'1414.3
2017-Feb-17 13:33S 33°22' E 152°16'1414.0
2017-Feb-17 12:33S 33°35' E 152°10'9813.9
2017-Feb-17 05:32S 35°05' E 151°24'1313.5
2017-Feb-17 04:33S 35°17' E 151°18'1313.3
2017-Feb-17 03:33S 35°29' E 151°12'1313.0
2017-Feb-17 02:34S 35°41' E 151°05'3114.2
2017-Feb-17 00:21S 36°10' E 150°50'1315.9
2017-Feb-16 23:34S 36°21' E 150°43'  
Track history (hours):
 
Tides and Currents Weather Stations Pressure Air Temp Water Temp Dewpoint Dewpoint Depression Visibility Wind Speed Wind Dir Waves Ship Positions

HUAL Seoul

Last reported at 2017-Feb-23 12:13 UTC. Time now 2017-Feb-28 07:44 UTC.
Position S 36°14' E 174°57'.

Type: Cargo ship. MMSI: 257496000.

Date/timePositionNaut miles runAvg speedWind from/ knotsBaromVisibWave heightAir tempDewpointWater temp
2017-Feb-23 12:13S 36°14' E 174°57'710.1
2017-Feb-23 11:33S 36°20' E 174°58'10 9.7
2017-Feb-23 10:33S 36°30' E 174°59'10 9.9
2017-Feb-23 09:33S 36°39' E 174°55'10 9.7
2017-Feb-23 08:33S 36°48' E 174°49'3 3.2
2017-Feb-23 07:31S 36°50' E 174°46'0 0.0
2017-Feb-23 05:31S 36°50' E 174°46'0 0.0
2017-Feb-23 04:31S 36°50' E 174°46'0 0.0
2017-Feb-23 03:31S 36°50' E 174°46'0 0.0
2017-Feb-23 02:31S 36°50' E 174°46'0 0.0
2017-Feb-23 01:32S 36°50' E 174°46'1 1.5
2017-Feb-23 00:33S 36°50' E 174°48'8 8.4
2017-Feb-22 23:33S 36°42' E 174°52'8 8.0
2017-Feb-22 22:33S 36°36' E 174°58'8 7.8
2017-Feb-22 21:33S 36°28' E 174°60'10 9.6
2017-Feb-22 20:33S 36°19' E 174°58'  
2017-Feb-19 18:23S 27°14' E 154°43'2018.2
2017-Feb-19 17:18S 27°06' E 154°22'3218.7
2017-Feb-19 15:33S 26°53' E 153°49'1918.7
2017-Feb-19 14:33S 26°46' E 153°30'1515.4
2017-Feb-19 13:33S 26°42' E 153°13'1111.4
2017-Feb-19 12:34S 26°53' E 153°10'1615.9
2017-Feb-19 11:33S 27°06' E 153°20'1413.7
2017-Feb-19 10:33S 27°19' E 153°13'5 4.4
2017-Feb-19 09:31S 27°23' E 153°10'0 0.0
2017-Feb-19 08:31S 27°23' E 153°10'0 0.0
2017-Feb-19 07:31S 27°23' E 153°10'0 0.0
2017-Feb-19 06:31S 27°23' E 153°10'0 0.0
2017-Feb-19 05:31S 27°23' E 153°10'0 0.0
2017-Feb-19 04:31S 27°23' E 153°10'0 0.0
2017-Feb-19 03:31S 27°23' E 153°10'0 0.0
2017-Feb-19 02:31S 27°23' E 153°10'0 0.0
2017-Feb-19 01:31S 27°23' E 153°10'0 0.0
2017-Feb-19 00:31S 27°23' E 153°10'2 1.8
2017-Feb-18 23:33S 27°21' E 153°11'1514.6
2017-Feb-18 22:33S 27°10' E 153°21'1615.6
2017-Feb-18 21:33S 26°56' E 153°12'1313.1
2017-Feb-18 20:34S 26°43' E 153°11'4 3.8
2017-Feb-18 19:34S 26°41' E 153°14'9 8.7
2017-Feb-18 18:31S 26°43' E 153°24'1112.0
2017-Feb-18 17:33S 26°51' E 153°33'1514.9
2017-Feb-18 16:33S 27°06' E 153°38'1515.3
2017-Feb-18 15:33S 27°21' E 153°40'1514.5
2017-Feb-18 14:33S 27°35' E 153°42'1514.7
2017-Feb-18 13:33S 27°50' E 153°43'1515.2
2017-Feb-18 12:33S 28°05' E 153°44'1615.1
2017-Feb-18 11:31S 28°21' E 153°45'1414.7
2017-Feb-18 10:33S 28°35' E 153°46'1514.6
2017-Feb-18 09:33S 28°49' E 153°44'1514.8
2017-Feb-18 08:33S 29°04' E 153°41'16713.6
2017-Feb-17 20:17S 31°47' E 152°59'1114.6
2017-Feb-17 19:33S 31°57' E 152°56'3115.5
2017-Feb-17 17:34S 32°26' E 152°44'1515.2
2017-Feb-17 16:34S 32°41' E 152°38'1615.9
2017-Feb-17 15:34S 32°55' E 152°29'1515.0
2017-Feb-17 14:34S 33°09' E 152°23'1414.3
2017-Feb-17 13:33S 33°22' E 152°16'1414.0
2017-Feb-17 12:33S 33°35' E 152°10'9813.9
2017-Feb-17 05:32S 35°05' E 151°24'1313.5
2017-Feb-17 04:33S 35°17' E 151°18'1313.3
2017-Feb-17 03:33S 35°29' E 151°12'1313.0
2017-Feb-17 02:34S 35°41' E 151°05'3114.2
2017-Feb-17 00:21S 36°10' E 150°50'1315.9
2017-Feb-16 23:34S 36°21' E 150°43'  

Dump ship's entire track history